sensor_id;sensor_type;location;lat;lon;timestamp;temperature;humidity
76897;SHT30;65856;52.178;21.176;2022-12-29T00:01:07;6.72;69.44
76897;SHT30;65856;52.178;21.176;2022-12-29T00:03:35;6.74;69.45
76897;SHT30;65856;52.178;21.176;2022-12-29T00:06:03;6.74;69.45
76897;SHT30;65856;52.178;21.176;2022-12-29T00:08:32;6.73;69.34
76897;SHT30;65856;52.178;21.176;2022-12-29T00:11:06;6.75;69.50
76897;SHT30;65856;52.178;21.176;2022-12-29T00:13:35;6.75;69.51
76897;SHT30;65856;52.178;21.176;2022-12-29T00:16:22;6.75;69.49
76897;SHT30;65856;52.178;21.176;2022-12-29T00:18:50;6.76;69.38
76897;SHT30;65856;52.178;21.176;2022-12-29T00:21:18;6.73;69.24
76897;SHT30;65856;52.178;21.176;2022-12-29T00:24:09;6.73;69.45
76897;SHT30;65856;52.178;21.176;2022-12-29T00:27:07;6.71;69.48
76897;SHT30;65856;52.178;21.176;2022-12-29T00:29:57;6.71;69.33
76897;SHT30;65856;52.178;21.176;2022-12-29T00:32:58;6.72;69.22
76897;SHT30;65856;52.178;21.176;2022-12-29T00:35:45;6.74;69.14
76897;SHT30;65856;52.178;21.176;2022-12-29T00:38:19;6.77;69.18
76897;SHT30;65856;52.178;21.176;2022-12-29T00:41:07;6.81;69.13
76897;SHT30;65856;52.178;21.176;2022-12-29T00:43:53;6.81;69.04
76897;SHT30;65856;52.178;21.176;2022-12-29T00:46:36;6.80;68.88
76897;SHT30;65856;52.178;21.176;2022-12-29T00:49:05;6.78;68.93
76897;SHT30;65856;52.178;21.176;2022-12-29T00:51:55;6.78;68.88
76897;SHT30;65856;52.178;21.176;2022-12-29T00:54:25;6.77;68.92
76897;SHT30;65856;52.178;21.176;2022-12-29T00:56:54;6.73;68.85
76897;SHT30;65856;52.178;21.176;2022-12-29T00:59:22;6.69;68.99
76897;SHT30;65856;52.178;21.176;2022-12-29T01:01:52;6.70;69.12
76897;SHT30;65856;52.178;21.176;2022-12-29T01:04:22;6.68;69.18
76897;SHT30;65856;52.178;21.176;2022-12-29T01:06:52;6.68;69.20
76897;SHT30;65856;52.178;21.176;2022-12-29T01:09:20;6.67;69.25
76897;SHT30;65856;52.178;21.176;2022-12-29T01:12:07;6.67;69.24
76897;SHT30;65856;52.178;21.176;2022-12-29T01:14:36;6.68;69.26
76897;SHT30;65856;52.178;21.176;2022-12-29T01:17:05;6.70;69.02
76897;SHT30;65856;52.178;21.176;2022-12-29T01:19:33;6.71;69.14
76897;SHT30;65856;52.178;21.176;2022-12-29T01:22:02;6.74;69.10
76897;SHT30;65856;52.178;21.176;2022-12-29T01:24:30;6.75;68.93
76897;SHT30;65856;52.178;21.176;2022-12-29T01:26:58;6.74;68.81
76897;SHT30;65856;52.178;21.176;2022-12-29T01:29:26;6.72;68.96
76897;SHT30;65856;52.178;21.176;2022-12-29T01:31:54;6.71;69.07
76897;SHT30;65856;52.178;21.176;2022-12-29T01:34:22;6.70;69.10
76897;SHT30;65856;52.178;21.176;2022-12-29T01:36:50;6.68;69.08
76897;SHT30;65856;52.178;21.176;2022-12-29T01:39:19;6.65;69.17
76897;SHT30;65856;52.178;21.176;2022-12-29T01:41:47;6.62;69.16
76897;SHT30;65856;52.178;21.176;2022-12-29T01:47:19;6.56;69.31
76897;SHT30;65856;52.178;21.176;2022-12-29T01:49:56;6.52;69.26
76897;SHT30;65856;52.178;21.176;2022-12-29T01:52:35;6.49;69.38
76897;SHT30;65856;52.178;21.176;2022-12-29T01:55:11;6.52;69.31
76897;SHT30;65856;52.178;21.176;2022-12-29T01:57:40;6.53;69.18
76897;SHT30;65856;52.178;21.176;2022-12-29T02:00:16;6.55;69.12
76897;SHT30;65856;52.178;21.176;2022-12-29T02:02:46;6.55;69.11
76897;SHT30;65856;52.178;21.176;2022-12-29T02:05:20;6.55;69.19
76897;SHT30;65856;52.178;21.176;2022-12-29T02:07:54;6.55;69.19
76897;SHT30;65856;52.178;21.176;2022-12-29T02:10:23;6.55;69.17
76897;SHT30;65856;52.178;21.176;2022-12-29T02:12:56;6.53;69.18
76897;SHT30;65856;52.178;21.176;2022-12-29T02:15:26;6.52;69.13
76897;SHT30;65856;52.178;21.176;2022-12-29T02:18:15;6.47;69.36
76897;SHT30;65856;52.178;21.176;2022-12-29T02:24:22;6.39;69.87
76897;SHT30;65856;52.178;21.176;2022-12-29T02:27:25;6.37;70.15
76897;SHT30;65856;52.178;21.176;2022-12-29T02:30:15;6.34;70.32
76897;SHT30;65856;52.178;21.176;2022-12-29T02:33:11;6.34;70.31
76897;SHT30;65856;52.178;21.176;2022-12-29T02:35:55;6.37;70.81
76897;SHT30;65856;52.178;21.176;2022-12-29T02:38:38;6.37;70.96
76897;SHT30;65856;52.178;21.176;2022-12-29T02:41:21;6.38;71.01
76897;SHT30;65856;52.178;21.176;2022-12-29T02:43:56;6.41;71.32
76897;SHT30;65856;52.178;21.176;2022-12-29T02:46:40;6.41;71.51
76897;SHT30;65856;52.178;21.176;2022-12-29T02:49:15;6.39;71.58
76897;SHT30;65856;52.178;21.176;2022-12-29T02:51:52;6.36;71.74
76897;SHT30;65856;52.178;21.176;2022-12-29T02:54:27;6.35;72.08
76897;SHT30;65856;52.178;21.176;2022-12-29T02:57:12;6.30;71.95
76897;SHT30;65856;52.178;21.176;2022-12-29T02:59:55;6.27;72.45
76897;SHT30;65856;52.178;21.176;2022-12-29T03:02:32;6.28;72.82
76897;SHT30;65856;52.178;21.176;2022-12-29T03:05:29;6.27;72.74
76897;SHT30;65856;52.178;21.176;2022-12-29T03:08:15;6.28;72.75
76897;SHT30;65856;52.178;21.176;2022-12-29T03:10:57;6.28;72.79
76897;SHT30;65856;52.178;21.176;2022-12-29T03:13:29;6.26;73.01
76897;SHT30;65856;52.178;21.176;2022-12-29T03:16:34;6.24;73.36
76897;SHT30;65856;52.178;21.176;2022-12-29T03:19:13;6.21;73.53
76897;SHT30;65856;52.178;21.176;2022-12-29T03:21:49;6.18;73.88
76897;SHT30;65856;52.178;21.176;2022-12-29T03:24:43;6.16;74.22
76897;SHT30;65856;52.178;21.176;2022-12-29T03:27:16;6.12;74.44
76897;SHT30;65856;52.178;21.176;2022-12-29T03:29:51;6.04;74.64
76897;SHT30;65856;52.178;21.176;2022-12-29T03:32:26;6.00;74.82
76897;SHT30;65856;52.178;21.176;2022-12-29T03:34:58;6.01;75.00
76897;SHT30;65856;52.178;21.176;2022-12-29T03:37:28;6.02;75.09
76897;SHT30;65856;52.178;21.176;2022-12-29T03:40:04;5.98;75.17
76897;SHT30;65856;52.178;21.176;2022-12-29T03:42:35;5.95;75.36
76897;SHT30;65856;52.178;21.176;2022-12-29T03:45:06;5.89;75.62
76897;SHT30;65856;52.178;21.176;2022-12-29T03:47:36;5.83;75.66
76897;SHT30;65856;52.178;21.176;2022-12-29T03:50:05;5.76;75.83
76897;SHT30;65856;52.178;21.176;2022-12-29T03:52:37;5.67;76.06
76897;SHT30;65856;52.178;21.176;2022-12-29T03:55:06;5.59;76.27
76897;SHT30;65856;52.178;21.176;2022-12-29T03:57:35;5.53;76.49
76897;SHT30;65856;52.178;21.176;2022-12-29T04:00:05;5.48;76.64
76897;SHT30;65856;52.178;21.176;2022-12-29T04:02:36;5.45;76.81
76897;SHT30;65856;52.178;21.176;2022-12-29T04:05:05;5.44;76.90
76897;SHT30;65856;52.178;21.176;2022-12-29T04:07:34;5.43;77.13
76897;SHT30;65856;52.178;21.176;2022-12-29T04:10:02;5.47;77.16
76897;SHT30;65856;52.178;21.176;2022-12-29T04:12:32;5.44;77.14
76897;SHT30;65856;52.178;21.176;2022-12-29T04:15:00;5.40;77.14
76897;SHT30;65856;52.178;21.176;2022-12-29T04:17:28;5.36;77.21
76897;SHT30;65856;52.178;21.176;2022-12-29T04:19:56;5.32;77.11
76897;SHT30;65856;52.178;21.176;2022-12-29T04:22:39;5.27;77.19
76897;SHT30;65856;52.178;21.176;2022-12-29T04:25:07;5.23;77.20
76897;SHT30;65856;52.178;21.176;2022-12-29T04:27:36;5.23;77.21
76897;SHT30;65856;52.178;21.176;2022-12-29T04:30:05;5.25;77.27
76897;SHT30;65856;52.178;21.176;2022-12-29T04:32:36;5.25;77.31
76897;SHT30;65856;52.178;21.176;2022-12-29T04:35:04;5.21;77.28
76897;SHT30;65856;52.178;21.176;2022-12-29T04:37:34;5.18;77.26
76897;SHT30;65856;52.178;21.176;2022-12-29T04:40:02;5.15;77.23
76897;SHT30;65856;52.178;21.176;2022-12-29T04:42:32;5.13;77.28
76897;SHT30;65856;52.178;21.176;2022-12-29T04:45:01;5.13;77.34
76897;SHT30;65856;52.178;21.176;2022-12-29T04:47:29;5.12;77.32
76897;SHT30;65856;52.178;21.176;2022-12-29T04:49:57;5.08;77.31
76897;SHT30;65856;52.178;21.176;2022-12-29T04:52:25;5.09;77.52
76897;SHT30;65856;52.178;21.176;2022-12-29T04:54:54;5.33;77.36
76897;SHT30;65856;52.178;21.176;2022-12-29T04:57:22;5.62;76.75
76897;SHT30;65856;52.178;21.176;2022-12-29T04:59:50;5.80;75.79
76897;SHT30;65856;52.178;21.176;2022-12-29T05:02:18;5.74;75.61
76897;SHT30;65856;52.178;21.176;2022-12-29T05:04:47;5.71;75.70
76897;SHT30;65856;52.178;21.176;2022-12-29T05:07:15;5.63;75.56
76897;SHT30;65856;52.178;21.176;2022-12-29T05:09:43;5.52;75.16
76897;SHT30;65856;52.178;21.176;2022-12-29T05:12:11;5.44;75.22
76897;SHT30;65856;52.178;21.176;2022-12-29T05:14:39;5.37;75.40
76897;SHT30;65856;52.178;21.176;2022-12-29T05:17:08;5.31;75.33
76897;SHT30;65856;52.178;21.176;2022-12-29T05:19:36;5.25;75.38
76897;SHT30;65856;52.178;21.176;2022-12-29T05:22:05;5.22;75.31
76897;SHT30;65856;52.178;21.176;2022-12-29T05:24:33;5.21;75.34
76897;SHT30;65856;52.178;21.176;2022-12-29T05:27:02;5.19;75.20
76897;SHT30;65856;52.178;21.176;2022-12-29T05:29:30;5.16;75.21
76897;SHT30;65856;52.178;21.176;2022-12-29T05:31:58;5.15;75.30
76897;SHT30;65856;52.178;21.176;2022-12-29T05:34:27;5.12;75.24
76897;SHT30;65856;52.178;21.176;2022-12-29T05:36:55;5.11;75.36
76897;SHT30;65856;52.178;21.176;2022-12-29T05:39:23;5.07;75.40
76897;SHT30;65856;52.178;21.176;2022-12-29T05:41:51;5.03;75.48
76897;SHT30;65856;52.178;21.176;2022-12-29T05:44:20;5.01;75.54
76897;SHT30;65856;52.178;21.176;2022-12-29T05:46:48;5.00;75.66
76897;SHT30;65856;52.178;21.176;2022-12-29T05:49:16;5.00;75.50
76897;SHT30;65856;52.178;21.176;2022-12-29T05:51:45;5.00;75.45
76897;SHT30;65856;52.178;21.176;2022-12-29T05:54:13;4.98;75.40
76897;SHT30;65856;52.178;21.176;2022-12-29T05:56:42;4.97;75.41
76897;SHT30;65856;52.178;21.176;2022-12-29T05:59:10;4.95;75.40
76897;SHT30;65856;52.178;21.176;2022-12-29T06:01:39;4.93;75.40
76897;SHT30;65856;52.178;21.176;2022-12-29T06:04:07;4.90;75.53
76897;SHT30;65856;52.178;21.176;2022-12-29T06:06:36;4.88;75.70
76897;SHT30;65856;52.178;21.176;2022-12-29T06:09:05;4.88;75.79
76897;SHT30;65856;52.178;21.176;2022-12-29T06:11:36;4.88;75.84
76897;SHT30;65856;52.178;21.176;2022-12-29T06:14:04;4.90;75.67
76897;SHT30;65856;52.178;21.176;2022-12-29T06:16:33;4.93;75.58
76897;SHT30;65856;52.178;21.176;2022-12-29T06:19:02;4.95;75.53
76897;SHT30;65856;52.178;21.176;2022-12-29T06:21:30;4.95;75.50
76897;SHT30;65856;52.178;21.176;2022-12-29T06:23:59;4.94;75.62
76897;SHT30;65856;52.178;21.176;2022-12-29T06:26:27;4.92;75.70
76897;SHT30;65856;52.178;21.176;2022-12-29T06:28:56;4.89;75.63
76897;SHT30;65856;52.178;21.176;2022-12-29T06:31:24;4.88;75.68
76897;SHT30;65856;52.178;21.176;2022-12-29T06:33:52;4.90;75.63
76897;SHT30;65856;52.178;21.176;2022-12-29T06:36:21;4.91;75.51
76897;SHT30;65856;52.178;21.176;2022-12-29T06:38:49;4.95;75.45
76897;SHT30;65856;52.178;21.176;2022-12-29T06:41:19;4.98;75.50
76897;SHT30;65856;52.178;21.176;2022-12-29T06:43:47;5.02;75.43
76897;SHT30;65856;52.178;21.176;2022-12-29T06:46:16;5.03;75.44
76897;SHT30;65856;52.178;21.176;2022-12-29T06:48:45;5.01;75.47
76897;SHT30;65856;52.178;21.176;2022-12-29T06:51:13;4.99;75.60
76897;SHT30;65856;52.178;21.176;2022-12-29T06:53:41;4.99;75.64
76897;SHT30;65856;52.178;21.176;2022-12-29T06:56:10;4.99;75.56
76897;SHT30;65856;52.178;21.176;2022-12-29T06:58:38;4.99;75.59
76897;SHT30;65856;52.178;21.176;2022-12-29T07:01:07;4.99;75.54
76897;SHT30;65856;52.178;21.176;2022-12-29T07:03:35;5.01;75.51
76897;SHT30;65856;52.178;21.176;2022-12-29T07:06:04;5.05;75.56
76897;SHT30;65856;52.178;21.176;2022-12-29T07:08:33;5.07;75.50
76897;SHT30;65856;52.178;21.176;2022-12-29T07:11:02;5.09;75.46
76897;SHT30;65856;52.178;21.176;2022-12-29T07:13:30;5.09;75.34
76897;SHT30;65856;52.178;21.176;2022-12-29T07:15:59;5.08;75.34
76897;SHT30;65856;52.178;21.176;2022-12-29T07:18:32;5.08;75.28
76897;SHT30;65856;52.178;21.176;2022-12-29T07:21:01;5.07;75.24
76897;SHT30;65856;52.178;21.176;2022-12-29T07:23:30;5.05;75.21
76897;SHT30;65856;52.178;21.176;2022-12-29T07:26:01;5.04;75.22
76897;SHT30;65856;52.178;21.176;2022-12-29T07:28:34;5.05;75.17
76897;SHT30;65856;52.178;21.176;2022-12-29T07:31:05;5.06;74.93
76897;SHT30;65856;52.178;21.176;2022-12-29T07:33:41;5.09;74.97
76897;SHT30;65856;52.178;21.176;2022-12-29T07:36:10;5.13;74.76
76897;SHT30;65856;52.178;21.176;2022-12-29T07:38:39;5.16;74.68
76897;SHT30;65856;52.178;21.176;2022-12-29T07:41:08;5.18;74.51
76897;SHT30;65856;52.178;21.176;2022-12-29T07:43:37;5.20;74.47
76897;SHT30;65856;52.178;21.176;2022-12-29T07:46:05;5.21;74.35
76897;SHT30;65856;52.178;21.176;2022-12-29T07:48:35;5.23;74.29
76897;SHT30;65856;52.178;21.176;2022-12-29T07:51:04;5.23;74.23
76897;SHT30;65856;52.178;21.176;2022-12-29T07:53:33;5.22;74.15
76897;SHT30;65856;52.178;21.176;2022-12-29T07:56:01;5.24;74.08
76897;SHT30;65856;52.178;21.176;2022-12-29T07:58:30;5.26;73.98
76897;SHT30;65856;52.178;21.176;2022-12-29T08:00:58;5.32;73.99
76897;SHT30;65856;52.178;21.176;2022-12-29T08:03:27;5.37;73.86
76897;SHT30;65856;52.178;21.176;2022-12-29T08:05:55;5.41;73.61
76897;SHT30;65856;52.178;21.176;2022-12-29T08:08:24;5.43;73.49
76897;SHT30;65856;52.178;21.176;2022-12-29T08:10:52;5.43;73.38
76897;SHT30;65856;52.178;21.176;2022-12-29T08:13:20;5.45;73.36
76897;SHT30;65856;52.178;21.176;2022-12-29T08:15:49;5.46;73.18
76897;SHT30;65856;52.178;21.176;2022-12-29T08:18:17;5.47;73.04
76897;SHT30;65856;52.178;21.176;2022-12-29T08:20:45;5.49;73.25
76897;SHT30;65856;52.178;21.176;2022-12-29T08:23:13;5.55;73.16
76897;SHT30;65856;52.178;21.176;2022-12-29T08:25:41;5.62;73.04
76897;SHT30;65856;52.178;21.176;2022-12-29T08:28:09;5.69;72.92
76897;SHT30;65856;52.178;21.176;2022-12-29T08:30:38;5.76;72.93
76897;SHT30;65856;52.178;21.176;2022-12-29T08:33:06;5.83;72.77
76897;SHT30;65856;52.178;21.176;2022-12-29T08:35:34;5.89;72.38
76897;SHT30;65856;52.178;21.176;2022-12-29T08:38:02;5.94;72.17
76897;SHT30;65856;52.178;21.176;2022-12-29T08:40:30;5.99;72.03
76897;SHT30;65856;52.178;21.176;2022-12-29T08:42:58;6.04;71.77
76897;SHT30;65856;52.178;21.176;2022-12-29T08:45:26;6.12;71.64
76897;SHT30;65856;52.178;21.176;2022-12-29T08:47:55;6.27;71.20
76897;SHT30;65856;52.178;21.176;2022-12-29T08:50:23;6.43;70.86
76897;SHT30;65856;52.178;21.176;2022-12-29T08:52:51;6.57;70.56
76897;SHT30;65856;52.178;21.176;2022-12-29T08:55:19;6.69;70.18
76897;SHT30;65856;52.178;21.176;2022-12-29T08:57:47;6.78;70.00
76897;SHT30;65856;52.178;21.176;2022-12-29T09:00:15;6.86;69.49
76897;SHT30;65856;52.178;21.176;2022-12-29T09:02:46;6.91;69.30
76897;SHT30;65856;52.178;21.176;2022-12-29T09:05:14;6.94;69.24
76897;SHT30;65856;52.178;21.176;2022-12-29T09:07:42;6.98;69.08
76897;SHT30;65856;52.178;21.176;2022-12-29T09:10:11;7.03;68.91
76897;SHT30;65856;52.178;21.176;2022-12-29T09:12:39;7.06;68.81
76897;SHT30;65856;52.178;21.176;2022-12-29T09:15:08;7.09;68.56
76897;SHT30;65856;52.178;21.176;2022-12-29T09:17:37;7.12;68.52
76897;SHT30;65856;52.178;21.176;2022-12-29T09:20:09;7.14;68.56
76897;SHT30;65856;52.178;21.176;2022-12-29T09:22:38;7.15;67.93
76897;SHT30;65856;52.178;21.176;2022-12-29T09:25:07;7.16;67.51
76897;SHT30;65856;52.178;21.176;2022-12-29T09:27:37;7.19;67.42
76897;SHT30;65856;52.178;21.176;2022-12-29T09:30:08;7.21;67.28
76897;SHT30;65856;52.178;21.176;2022-12-29T09:32:40;7.26;66.93
76897;SHT30;65856;52.178;21.176;2022-12-29T09:35:08;7.30;66.81
76897;SHT30;65856;52.178;21.176;2022-12-29T09:37:36;7.36;66.71
76897;SHT30;65856;52.178;21.176;2022-12-29T09:40:06;7.41;66.79
76897;SHT30;65856;52.178;21.176;2022-12-29T09:42:53;7.47;66.91
76897;SHT30;65856;52.178;21.176;2022-12-29T09:45:40;7.50;66.76
76897;SHT30;65856;52.178;21.176;2022-12-29T09:48:14;7.51;66.61
76897;SHT30;65856;52.178;21.176;2022-12-29T09:50:49;7.52;66.63
76897;SHT30;65856;52.178;21.176;2022-12-29T09:53:25;7.51;66.12
76897;SHT30;65856;52.178;21.176;2022-12-29T09:56:01;7.53;66.43
76897;SHT30;65856;52.178;21.176;2022-12-29T09:58:37;7.55;66.50
76897;SHT30;65856;52.178;21.176;2022-12-29T10:01:14;7.54;66.04
76897;SHT30;65856;52.178;21.176;2022-12-29T10:03:55;7.55;65.84
76897;SHT30;65856;52.178;21.176;2022-12-29T10:06:26;7.57;65.81
76897;SHT30;65856;52.178;21.176;2022-12-29T10:09:08;7.61;65.82
76897;SHT30;65856;52.178;21.176;2022-12-29T10:11:56;7.66;65.79
76897;SHT30;65856;52.178;21.176;2022-12-29T10:14:47;7.70;65.36
76897;SHT30;65856;52.178;21.176;2022-12-29T10:17:29;7.74;65.47
76897;SHT30;65856;52.178;21.176;2022-12-29T10:20:14;7.74;65.05
76897;SHT30;65856;52.178;21.176;2022-12-29T10:23:04;7.76;65.31
76897;SHT30;65856;52.178;21.176;2022-12-29T10:25:50;7.77;65.23
76897;SHT30;65856;52.178;21.176;2022-12-29T10:28:24;7.76;64.99
76897;SHT30;65856;52.178;21.176;2022-12-29T10:31:03;7.80;65.37
76897;SHT30;65856;52.178;21.176;2022-12-29T10:33:40;7.89;65.83
76897;SHT30;65856;52.178;21.176;2022-12-29T10:36:12;8.12;66.57
76897;SHT30;65856;52.178;21.176;2022-12-29T10:38:51;8.39;65.71
76897;SHT30;65856;52.178;21.176;2022-12-29T10:41:32;8.59;65.55
76897;SHT30;65856;52.178;21.176;2022-12-29T10:44:07;8.72;64.28
76897;SHT30;65856;52.178;21.176;2022-12-29T10:46:41;8.72;64.09
76897;SHT30;65856;52.178;21.176;2022-12-29T10:49:15;8.68;63.91
76897;SHT30;65856;52.178;21.176;2022-12-29T10:51:46;8.60;63.17
76897;SHT30;65856;52.178;21.176;2022-12-29T10:54:21;8.54;63.24
76897;SHT30;65856;52.178;21.176;2022-12-29T10:57:00;8.50;63.42
76897;SHT30;65856;52.178;21.176;2022-12-29T10:59:35;8.46;63.32
76897;SHT30;65856;52.178;21.176;2022-12-29T11:02:12;8.46;63.59
76897;SHT30;65856;52.178;21.176;2022-12-29T11:05:06;8.48;63.28
76897;SHT30;65856;52.178;21.176;2022-12-29T11:07:47;8.49;63.29
76897;SHT30;65856;52.178;21.176;2022-12-29T11:10:21;8.49;63.25
76897;SHT30;65856;52.178;21.176;2022-12-29T11:13:06;8.51;63.26
76897;SHT30;65856;52.178;21.176;2022-12-29T11:15:40;8.52;63.17
76897;SHT30;65856;52.178;21.176;2022-12-29T11:18:22;8.54;63.42
76897;SHT30;65856;52.178;21.176;2022-12-29T11:20:52;8.55;63.21
76897;SHT30;65856;52.178;21.176;2022-12-29T11:23:26;8.57;63.16
76897;SHT30;65856;52.178;21.176;2022-12-29T11:26:12;8.56;62.98
76897;SHT30;65856;52.178;21.176;2022-12-29T11:28:46;8.55;63.20
76897;SHT30;65856;52.178;21.176;2022-12-29T11:31:33;8.53;62.96
76897;SHT30;65856;52.178;21.176;2022-12-29T11:34:08;8.52;63.14
76897;SHT30;65856;52.178;21.176;2022-12-29T11:36:44;8.50;62.97
76897;SHT30;65856;52.178;21.176;2022-12-29T11:39:23;8.49;63.08
76897;SHT30;65856;52.178;21.176;2022-12-29T11:42:11;8.48;62.92
76897;SHT30;65856;52.178;21.176;2022-12-29T11:44:44;8.48;63.14
76897;SHT30;65856;52.178;21.176;2022-12-29T11:47:20;8.48;63.08
76897;SHT30;65856;52.178;21.176;2022-12-29T11:49:56;8.47;63.04
76897;SHT30;65856;52.178;21.176;2022-12-29T11:52:28;8.47;63.12
76897;SHT30;65856;52.178;21.176;2022-12-29T11:55:01;8.46;63.07
76897;SHT30;65856;52.178;21.176;2022-12-29T11:57:42;8.47;63.10
76897;SHT30;65856;52.178;21.176;2022-12-29T12:00:16;8.46;62.99
76897;SHT30;65856;52.178;21.176;2022-12-29T12:02:48;8.48;63.03
76897;SHT30;65856;52.178;21.176;2022-12-29T12:05:24;8.49;63.31
76897;SHT30;65856;52.178;21.176;2022-12-29T12:08:04;8.50;63.54
76897;SHT30;65856;52.178;21.176;2022-12-29T12:10:44;8.49;63.02
76897;SHT30;65856;52.178;21.176;2022-12-29T12:13:22;8.52;63.34
76897;SHT30;65856;52.178;21.176;2022-12-29T12:16:02;8.56;63.09
76897;SHT30;65856;52.178;21.176;2022-12-29T12:18:40;8.61;63.18
76897;SHT30;65856;52.178;21.176;2022-12-29T12:21:14;8.65;63.18
76897;SHT30;65856;52.178;21.176;2022-12-29T12:23:56;8.67;63.07
76897;SHT30;65856;52.178;21.176;2022-12-29T12:26:36;8.71;63.55
76897;SHT30;65856;52.178;21.176;2022-12-29T12:29:14;8.74;63.39
76897;SHT30;65856;52.178;21.176;2022-12-29T12:31:51;8.75;63.26
76897;SHT30;65856;52.178;21.176;2022-12-29T12:34:27;8.77;63.62
76897;SHT30;65856;52.178;21.176;2022-12-29T12:40:27;8.79;63.37
76897;SHT30;65856;52.178;21.176;2022-12-29T12:43:18;8.78;63.25
76897;SHT30;65856;52.178;21.176;2022-12-29T12:46:06;8.78;63.61
76897;SHT30;65856;52.178;21.176;2022-12-29T12:48:58;8.77;63.32
76897;SHT30;65856;52.178;21.176;2022-12-29T12:51:49;8.77;63.24
76897;SHT30;65856;52.178;21.176;2022-12-29T12:54:30;8.77;63.39
76897;SHT30;65856;52.178;21.176;2022-12-29T12:57:22;8.76;63.56
76897;SHT30;65856;52.178;21.176;2022-12-29T13:00:12;8.75;63.56
76897;SHT30;65856;52.178;21.176;2022-12-29T13:02:46;8.75;63.65
76897;SHT30;65856;52.178;21.176;2022-12-29T13:05:40;8.74;63.66
76897;SHT30;65856;52.178;21.176;2022-12-29T13:11:54;8.74;63.79
76897;SHT30;65856;52.178;21.176;2022-12-29T13:14:39;8.77;63.56
76897;SHT30;65856;52.178;21.176;2022-12-29T13:17:25;8.82;63.50
76897;SHT30;65856;52.178;21.176;2022-12-29T13:20:02;8.86;63.66
76897;SHT30;65856;52.178;21.176;2022-12-29T13:22:48;8.89;63.93
76897;SHT30;65856;52.178;21.176;2022-12-29T13:25:29;8.91;63.66
76897;SHT30;65856;52.178;21.176;2022-12-29T13:28:06;8.92;63.61
76897;SHT30;65856;52.178;21.176;2022-12-29T13:30:48;8.91;63.64
76897;SHT30;65856;52.178;21.176;2022-12-29T13:33:26;8.93;63.79
76897;SHT30;65856;52.178;21.176;2022-12-29T13:36:07;8.92;63.91
76897;SHT30;65856;52.178;21.176;2022-12-29T13:38:48;8.91;63.86
76897;SHT30;65856;52.178;21.176;2022-12-29T13:41:30;8.89;63.88
76897;SHT30;65856;52.178;21.176;2022-12-29T13:44:03;8.89;63.85
76897;SHT30;65856;52.178;21.176;2022-12-29T13:46:40;8.88;64.00
76897;SHT30;65856;52.178;21.176;2022-12-29T13:49:13;8.87;64.13
76897;SHT30;65856;52.178;21.176;2022-12-29T13:51:46;8.86;64.22
76897;SHT30;65856;52.178;21.176;2022-12-29T13:54:21;8.86;64.29
76897;SHT30;65856;52.178;21.176;2022-12-29T13:57:03;8.86;64.30
76897;SHT30;65856;52.178;21.176;2022-12-29T13:59:44;8.86;64.37
76897;SHT30;65856;52.178;21.176;2022-12-29T14:02:24;8.86;64.30
76897;SHT30;65856;52.178;21.176;2022-12-29T14:05:05;8.86;64.20
76897;SHT30;65856;52.178;21.176;2022-12-29T14:07:58;8.87;64.11
76897;SHT30;65856;52.178;21.176;2022-12-29T14:10:30;8.90;64.15
76897;SHT30;65856;52.178;21.176;2022-12-29T14:13:04;8.97;64.11
76897;SHT30;65856;52.178;21.176;2022-12-29T14:15:39;9.03;63.86
76897;SHT30;65856;52.178;21.176;2022-12-29T14:18:14;9.06;63.64
76897;SHT30;65856;52.178;21.176;2022-12-29T14:20:55;9.09;63.59
76897;SHT30;65856;52.178;21.176;2022-12-29T14:23:37;9.10;63.68
76897;SHT30;65856;52.178;21.176;2022-12-29T14:26:11;9.09;63.77
76897;SHT30;65856;52.178;21.176;2022-12-29T14:28:44;9.10;63.54
76897;SHT30;65856;52.178;21.176;2022-12-29T14:34:16;9.12;63.33
76897;SHT30;65856;52.178;21.176;2022-12-29T14:36:55;9.13;63.46
76897;SHT30;65856;52.178;21.176;2022-12-29T14:39:29;9.11;63.38
76897;SHT30;65856;52.178;21.176;2022-12-29T14:42:03;9.10;63.08
76897;SHT30;65856;52.178;21.176;2022-12-29T14:44:46;9.10;63.07
76897;SHT30;65856;52.178;21.176;2022-12-29T14:47:18;9.10;63.03
76897;SHT30;65856;52.178;21.176;2022-12-29T14:49:53;9.09;63.15
76897;SHT30;65856;52.178;21.176;2022-12-29T14:52:22;9.08;63.11
76897;SHT30;65856;52.178;21.176;2022-12-29T14:54:55;9.07;63.22
76897;SHT30;65856;52.178;21.176;2022-12-29T14:57:30;9.06;63.46
76897;SHT30;65856;52.178;21.176;2022-12-29T15:00:15;9.06;63.61
76897;SHT30;65856;52.178;21.176;2022-12-29T15:02:50;9.06;63.41
76897;SHT30;65856;52.178;21.176;2022-12-29T15:05:32;9.05;63.50
76897;SHT30;65856;52.178;21.176;2022-12-29T15:08:07;9.04;63.36
76897;SHT30;65856;52.178;21.176;2022-12-29T15:10:40;9.06;63.32
76897;SHT30;65856;52.178;21.176;2022-12-29T15:13:16;9.09;63.71
76897;SHT30;65856;52.178;21.176;2022-12-29T15:15:49;9.13;63.65
76897;SHT30;65856;52.178;21.176;2022-12-29T15:18:22;9.17;63.44
76897;SHT30;65856;52.178;21.176;2022-12-29T15:20:55;9.23;63.46
76897;SHT30;65856;52.178;21.176;2022-12-29T15:23:26;9.28;63.60
76897;SHT30;65856;52.178;21.176;2022-12-29T15:25:57;9.30;63.44
76897;SHT30;65856;52.178;21.176;2022-12-29T15:28:36;9.30;63.53
76897;SHT30;65856;52.178;21.176;2022-12-29T15:31:10;9.31;63.48
76897;SHT30;65856;52.178;21.176;2022-12-29T15:33:41;9.32;63.49
76897;SHT30;65856;52.178;21.176;2022-12-29T15:36:13;9.30;63.40
76897;SHT30;65856;52.178;21.176;2022-12-29T15:38:46;9.27;63.50
76897;SHT30;65856;52.178;21.176;2022-12-29T15:41:20;9.22;63.69
76897;SHT30;65856;52.178;21.176;2022-12-29T15:44:21;9.17;63.49
76897;SHT30;65856;52.178;21.176;2022-12-29T15:46:55;9.14;63.84
76897;SHT30;65856;52.178;21.176;2022-12-29T15:49:24;9.11;63.91
76897;SHT30;65856;52.178;21.176;2022-12-29T15:51:52;9.07;64.00
76897;SHT30;65856;52.178;21.176;2022-12-29T15:54:21;9.04;64.09
76897;SHT30;65856;52.178;21.176;2022-12-29T15:56:52;9.01;64.22
76897;SHT30;65856;52.178;21.176;2022-12-29T15:59:25;8.98;64.23
76897;SHT30;65856;52.178;21.176;2022-12-29T16:01:56;8.96;64.34
76897;SHT30;65856;52.178;21.176;2022-12-29T16:04:27;8.94;64.47
76897;SHT30;65856;52.178;21.176;2022-12-29T16:06:59;8.92;64.53
76897;SHT30;65856;52.178;21.176;2022-12-29T16:09:30;8.90;64.53
76897;SHT30;65856;52.178;21.176;2022-12-29T16:12:01;8.86;64.61
76897;SHT30;65856;52.178;21.176;2022-12-29T16:14:40;8.85;64.59
76897;SHT30;65856;52.178;21.176;2022-12-29T16:17:12;8.85;64.75
76897;SHT30;65856;52.178;21.176;2022-12-29T16:19:48;8.87;64.75
76897;SHT30;65856;52.178;21.176;2022-12-29T16:22:22;8.91;64.71
76897;SHT30;65856;52.178;21.176;2022-12-29T16:24:58;8.93;64.66
76897;SHT30;65856;52.178;21.176;2022-12-29T16:27:34;8.93;64.70
76897;SHT30;65856;52.178;21.176;2022-12-29T16:30:12;8.95;64.67